sensor_id;sensor_type;location;lat;lon;timestamp;temperature;humidity
61412;DHT22;47278;49.732;7.690;2022-07-29T00:01:14;17.60;99.90
61412;DHT22;47278;49.732;7.690;2022-07-29T00:03:40;17.60;99.90
61412;DHT22;47278;49.732;7.690;2022-07-29T00:06:06;17.60;99.90
61412;DHT22;47278;49.732;7.690;2022-07-29T00:08:31;17.60;99.90
61412;DHT22;47278;49.732;7.690;2022-07-29T00:10:57;17.60;99.90
61412;DHT22;47278;49.732;7.690;2022-07-29T00:13:22;17.50;99.90
61412;DHT22;47278;49.732;7.690;2022-07-29T00:15:48;17.40;99.90
61412;DHT22;47278;49.732;7.690;2022-07-29T00:18:13;17.40;99.90
61412;DHT22;47278;49.732;7.690;2022-07-29T00:20:39;17.30;99.90
61412;DHT22;47278;49.732;7.690;2022-07-29T00:23:05;17.30;99.90
61412;DHT22;47278;49.732;7.690;2022-07-29T00:25:30;17.30;99.90
61412;DHT22;47278;49.732;7.690;2022-07-29T00:27:56;17.30;99.90
61412;DHT22;47278;49.732;7.690;2022-07-29T00:30:21;17.30;99.90
61412;DHT22;47278;49.732;7.690;2022-07-29T00:32:47;17.30;99.90
61412;DHT22;47278;49.732;7.690;2022-07-29T00:35:12;17.30;99.90
61412;DHT22;47278;49.732;7.690;2022-07-29T00:37:56;17.40;99.90
61412;DHT22;47278;49.732;7.690;2022-07-29T00:40:22;17.20;99.90
61412;DHT22;47278;49.732;7.690;2022-07-29T00:42:48;17.20;99.90
61412;DHT22;47278;49.732;7.690;2022-07-29T00:45:14;17.10;99.90
61412;DHT22;47278;49.732;7.690;2022-07-29T00:47:40;17.10;99.90
61412;DHT22;47278;49.732;7.690;2022-07-29T00:50:06;17.10;99.90
61412;DHT22;47278;49.732;7.690;2022-07-29T00:52:33;17.10;99.90
61412;DHT22;47278;49.732;7.690;2022-07-29T00:54:58;16.90;99.90
61412;DHT22;47278;49.732;7.690;2022-07-29T00:57:24;17.00;99.90
61412;DHT22;47278;49.732;7.690;2022-07-29T00:59:50;16.80;99.90
61412;DHT22;47278;49.732;7.690;2022-07-29T01:02:16;16.80;99.90
61412;DHT22;47278;49.732;7.690;2022-07-29T01:04:41;16.80;99.90
61412;DHT22;47278;49.732;7.690;2022-07-29T01:07:07;16.80;99.90
61412;DHT22;47278;49.732;7.690;2022-07-29T01:09:33;16.70;99.90
61412;DHT22;47278;49.732;7.690;2022-07-29T01:11:59;16.60;99.90
61412;DHT22;47278;49.732;7.690;2022-07-29T01:14:25;16.70;99.90
61412;DHT22;47278;49.732;7.690;2022-07-29T01:16:51;16.70;99.90
61412;DHT22;47278;49.732;7.690;2022-07-29T01:19:30;16.70;99.90
61412;DHT22;47278;49.732;7.690;2022-07-29T01:21:59;16.70;99.90
61412;DHT22;47278;49.732;7.690;2022-07-29T01:27:00;16.60;99.90
61412;DHT22;47278;49.732;7.690;2022-07-29T01:29:31;16.60;99.90
61412;DHT22;47278;49.732;7.690;2022-07-29T01:32:06;16.60;99.90
61412;DHT22;47278;49.732;7.690;2022-07-29T01:37:03;16.70;99.90
61412;DHT22;47278;49.732;7.690;2022-07-29T01:39:31;16.70;99.90
61412;DHT22;47278;49.732;7.690;2022-07-29T01:42:09;16.50;99.90
61412;DHT22;47278;49.732;7.690;2022-07-29T01:44:39;16.40;99.90
61412;DHT22;47278;49.732;7.690;2022-07-29T01:47:12;16.40;99.90
61412;DHT22;47278;49.732;7.690;2022-07-29T01:49:41;16.40;99.90
61412;DHT22;47278;49.732;7.690;2022-07-29T01:52:10;16.10;99.90
61412;DHT22;47278;49.732;7.690;2022-07-29T01:54:41;16.10;99.90
61412;DHT22;47278;49.732;7.690;2022-07-29T01:57:09;16.00;99.90
61412;DHT22;47278;49.732;7.690;2022-07-29T01:59:35;16.00;99.90
61412;DHT22;47278;49.732;7.690;2022-07-29T02:02:01;15.90;99.90
61412;DHT22;47278;49.732;7.690;2022-07-29T02:04:27;15.90;99.90
61412;DHT22;47278;49.732;7.690;2022-07-29T02:06:55;15.90;99.90
61412;DHT22;47278;49.732;7.690;2022-07-29T02:09:22;15.80;99.90
61412;DHT22;47278;49.732;7.690;2022-07-29T02:11:50;15.80;99.90
61412;DHT22;47278;49.732;7.690;2022-07-29T02:14:17;15.70;99.90
61412;DHT22;47278;49.732;7.690;2022-07-29T02:16:43;15.60;99.90
61412;DHT22;47278;49.732;7.690;2022-07-29T02:19:09;15.70;99.90
61412;DHT22;47278;49.732;7.690;2022-07-29T02:21:35;15.70;99.90
61412;DHT22;47278;49.732;7.690;2022-07-29T02:24:01;15.60;99.90
61412;DHT22;47278;49.732;7.690;2022-07-29T02:26:27;15.50;99.90
61412;DHT22;47278;49.732;7.690;2022-07-29T02:28:55;15.40;99.90
61412;DHT22;47278;49.732;7.690;2022-07-29T02:31:23;14.70;99.90
61412;DHT22;47278;49.732;7.690;2022-07-29T02:33:49;15.30;99.90
61412;DHT22;47278;49.732;7.690;2022-07-29T02:36:15;15.30;99.90
61412;DHT22;47278;49.732;7.690;2022-07-29T02:38:41;15.20;99.90
61412;DHT22;47278;49.732;7.690;2022-07-29T02:41:20;15.10;99.90
61412;DHT22;47278;49.732;7.690;2022-07-29T02:43:48;14.90;99.90
61412;DHT22;47278;49.732;7.690;2022-07-29T02:46:17;15.00;99.90
61412;DHT22;47278;49.732;7.690;2022-07-29T02:48:48;14.90;99.90
61412;DHT22;47278;49.732;7.690;2022-07-29T02:51:17;14.80;99.90
61412;DHT22;47278;49.732;7.690;2022-07-29T02:53:45;14.90;99.90
61412;DHT22;47278;49.732;7.690;2022-07-29T02:56:14;14.80;99.90
61412;DHT22;47278;49.732;7.690;2022-07-29T02:58:41;14.70;99.90
61412;DHT22;47278;49.732;7.690;2022-07-29T03:01:10;14.70;99.90
61412;DHT22;47278;49.732;7.690;2022-07-29T03:03:37;14.60;99.90
61412;DHT22;47278;49.732;7.690;2022-07-29T03:06:04;14.60;99.90
61412;DHT22;47278;49.732;7.690;2022-07-29T03:08:30;14.60;99.90
61412;DHT22;47278;49.732;7.690;2022-07-29T03:10:56;14.60;99.90
61412;DHT22;47278;49.732;7.690;2022-07-29T03:13:22;14.50;99.90
61412;DHT22;47278;49.732;7.690;2022-07-29T03:15:48;14.50;99.90
61412;DHT22;47278;49.732;7.690;2022-07-29T03:18:14;14.50;99.90
61412;DHT22;47278;49.732;7.690;2022-07-29T03:20:40;14.40;99.90
61412;DHT22;47278;49.732;7.690;2022-07-29T03:23:06;14.40;99.90
61412;DHT22;47278;49.732;7.690;2022-07-29T03:25:32;14.30;99.90
61412;DHT22;47278;49.732;7.690;2022-07-29T03:27:58;14.30;99.90
61412;DHT22;47278;49.732;7.690;2022-07-29T03:30:24;14.30;99.90
61412;DHT22;47278;49.732;7.690;2022-07-29T03:32:50;14.30;99.90
61412;DHT22;47278;49.732;7.690;2022-07-29T03:35:15;14.30;99.90
61412;DHT22;47278;49.732;7.690;2022-07-29T03:37:48;14.30;99.90
61412;DHT22;47278;49.732;7.690;2022-07-29T03:40:17;14.30;99.90
61412;DHT22;47278;49.732;7.690;2022-07-29T03:42:43;14.30;99.90
61412;DHT22;47278;49.732;7.690;2022-07-29T03:45:10;14.30;99.90
61412;DHT22;47278;49.732;7.690;2022-07-29T03:47:42;14.30;99.90
61412;DHT22;47278;49.732;7.690;2022-07-29T03:50:10;14.30;99.90
61412;DHT22;47278;49.732;7.690;2022-07-29T03:52:37;14.20;99.90
61412;DHT22;47278;49.732;7.690;2022-07-29T03:55:03;15.80;99.90
61412;DHT22;47278;49.732;7.690;2022-07-29T03:57:29;14.20;99.90
61412;DHT22;47278;49.732;7.690;2022-07-29T03:59:55;14.30;99.90
61412;DHT22;47278;49.732;7.690;2022-07-29T04:02:21;14.30;99.90
61412;DHT22;47278;49.732;7.690;2022-07-29T04:04:48;14.30;99.90
61412;DHT22;47278;49.732;7.690;2022-07-29T04:07:14;14.40;99.90
61412;DHT22;47278;49.732;7.690;2022-07-29T04:09:40;14.40;99.90
61412;DHT22;47278;49.732;7.690;2022-07-29T04:12:05;14.40;99.90
61412;DHT22;47278;49.732;7.690;2022-07-29T04:14:31;14.50;99.90
61412;DHT22;47278;49.732;7.690;2022-07-29T04:16:58;14.50;99.90
61412;DHT22;47278;49.732;7.690;2022-07-29T04:19:23;14.60;99.90
61412;DHT22;47278;49.732;7.690;2022-07-29T04:21:49;14.70;99.90
61412;DHT22;47278;49.732;7.690;2022-07-29T04:24:14;14.80;99.90
61412;DHT22;47278;49.732;7.690;2022-07-29T04:26:40;14.90;99.90
61412;DHT22;47278;49.732;7.690;2022-07-29T04:29:05;14.80;99.90
61412;DHT22;47278;49.732;7.690;2022-07-29T04:31:31;14.80;99.90
61412;DHT22;47278;49.732;7.690;2022-07-29T04:33:57;14.80;99.90
61412;DHT22;47278;49.732;7.690;2022-07-29T04:36:22;14.80;99.90
61412;DHT22;47278;49.732;7.690;2022-07-29T04:38:48;14.90;99.90
61412;DHT22;47278;49.732;7.690;2022-07-29T04:41:13;14.90;99.90
61412;DHT22;47278;49.732;7.690;2022-07-29T04:43:39;14.90;99.90
61412;DHT22;47278;49.732;7.690;2022-07-29T04:46:05;15.00;99.90
61412;DHT22;47278;49.732;7.690;2022-07-29T04:48:31;15.00;99.90
61412;DHT22;47278;49.732;7.690;2022-07-29T04:50:57;15.10;99.90
61412;DHT22;47278;49.732;7.690;2022-07-29T04:53:23;15.20;99.90
61412;DHT22;47278;49.732;7.690;2022-07-29T04:55:48;15.30;99.90
61412;DHT22;47278;49.732;7.690;2022-07-29T04:58:14;15.30;99.90
61412;DHT22;47278;49.732;7.690;2022-07-29T05:00:40;15.30;99.90
61412;DHT22;47278;49.732;7.690;2022-07-29T05:03:05;15.30;99.90
61412;DHT22;47278;49.732;7.690;2022-07-29T05:05:31;15.30;99.90
61412;DHT22;47278;49.732;7.690;2022-07-29T05:07:56;15.30;99.90
61412;DHT22;47278;49.732;7.690;2022-07-29T05:10:22;15.20;99.90
61412;DHT22;47278;49.732;7.690;2022-07-29T05:12:48;15.30;99.90
61412;DHT22;47278;49.732;7.690;2022-07-29T05:15:14;15.30;99.90
61412;DHT22;47278;49.732;7.690;2022-07-29T05:17:39;15.30;99.90
61412;DHT22;47278;49.732;7.690;2022-07-29T05:20:05;15.40;99.90
61412;DHT22;47278;49.732;7.690;2022-07-29T05:22:31;15.50;99.90
61412;DHT22;47278;49.732;7.690;2022-07-29T05:24:56;15.50;99.90
61412;DHT22;47278;49.732;7.690;2022-07-29T05:27:22;15.60;99.90
61412;DHT22;47278;49.732;7.690;2022-07-29T05:29:47;15.60;99.90
61412;DHT22;47278;49.732;7.690;2022-07-29T05:32:13;15.70;99.90
61412;DHT22;47278;49.732;7.690;2022-07-29T05:34:39;15.80;99.90
61412;DHT22;47278;49.732;7.690;2022-07-29T05:37:05;15.90;99.90
61412;DHT22;47278;49.732;7.690;2022-07-29T05:39:30;15.90;99.90
61412;DHT22;47278;49.732;7.690;2022-07-29T05:41:56;16.00;99.90
61412;DHT22;47278;49.732;7.690;2022-07-29T05:44:21;16.10;99.90
61412;DHT22;47278;49.732;7.690;2022-07-29T05:46:47;16.10;99.90
61412;DHT22;47278;49.732;7.690;2022-07-29T05:49:12;16.20;99.90
61412;DHT22;47278;49.732;7.690;2022-07-29T05:51:38;16.40;99.90
61412;DHT22;47278;49.732;7.690;2022-07-29T05:54:03;16.50;99.90
61412;DHT22;47278;49.732;7.690;2022-07-29T05:56:29;16.60;99.90
61412;DHT22;47278;49.732;7.690;2022-07-29T05:58:54;16.60;99.90
61412;DHT22;47278;49.732;7.690;2022-07-29T06:01:20;16.60;99.90
61412;DHT22;47278;49.732;7.690;2022-07-29T06:03:45;16.70;99.90
61412;DHT22;47278;49.732;7.690;2022-07-29T06:06:11;16.70;99.90
61412;DHT22;47278;49.732;7.690;2022-07-29T06:08:37;16.70;99.90
61412;DHT22;47278;49.732;7.690;2022-07-29T06:11:03;16.70;99.90
61412;DHT22;47278;49.732;7.690;2022-07-29T06:13:29;16.70;99.90
61412;DHT22;47278;49.732;7.690;2022-07-29T06:15:55;16.80;99.90
61412;DHT22;47278;49.732;7.690;2022-07-29T06:18:20;16.90;99.90
61412;DHT22;47278;49.732;7.690;2022-07-29T06:20:52;17.00;99.90
61412;DHT22;47278;49.732;7.690;2022-07-29T06:23:18;17.10;99.90
61412;DHT22;47278;49.732;7.690;2022-07-29T06:25:44;17.30;99.90
61412;DHT22;47278;49.732;7.690;2022-07-29T06:28:10;17.40;99.90
61412;DHT22;47278;49.732;7.690;2022-07-29T06:30:36;17.50;99.90
61412;DHT22;47278;49.732;7.690;2022-07-29T06:33:02;17.60;99.90
61412;DHT22;47278;49.732;7.690;2022-07-29T06:35:28;17.70;99.90
61412;DHT22;47278;49.732;7.690;2022-07-29T06:37:55;17.90;99.90
61412;DHT22;47278;49.732;7.690;2022-07-29T06:40:20;18.00;99.90
61412;DHT22;47278;49.732;7.690;2022-07-29T06:43:04;18.20;99.90
61412;DHT22;47278;49.732;7.690;2022-07-29T06:45:33;18.30;99.90
61412;DHT22;47278;49.732;7.690;2022-07-29T06:47:58;18.40;99.90
61412;DHT22;47278;49.732;7.690;2022-07-29T06:50:24;18.60;99.90
61412;DHT22;47278;49.732;7.690;2022-07-29T06:52:50;18.80;99.90
61412;DHT22;47278;49.732;7.690;2022-07-29T06:55:15;19.00;99.90
61412;DHT22;47278;49.732;7.690;2022-07-29T06:57:41;19.20;99.90
61412;DHT22;47278;49.732;7.690;2022-07-29T07:00:07;19.40;99.90
61412;DHT22;47278;49.732;7.690;2022-07-29T07:02:32;19.70;99.90
61412;DHT22;47278;49.732;7.690;2022-07-29T07:04:58;19.80;99.90
61412;DHT22;47278;49.732;7.690;2022-07-29T07:07:24;20.80;99.90
61412;DHT22;47278;49.732;7.690;2022-07-29T07:09:49;19.90;99.90
61412;DHT22;47278;49.732;7.690;2022-07-29T07:12:15;20.50;99.90
61412;DHT22;47278;49.732;7.690;2022-07-29T07:14:40;20.60;99.90
61412;DHT22;47278;49.732;7.690;2022-07-29T07:17:09;20.70;99.90
61412;DHT22;47278;49.732;7.690;2022-07-29T07:19:35;20.80;99.90
61412;DHT22;47278;49.732;7.690;2022-07-29T07:22:00;20.90;99.90
61412;DHT22;47278;49.732;7.690;2022-07-29T07:24:26;21.00;99.90
61412;DHT22;47278;49.732;7.690;2022-07-29T07:26:51;21.10;99.90
61412;DHT22;47278;49.732;7.690;2022-07-29T07:29:17;21.20;99.90
61412;DHT22;47278;49.732;7.690;2022-07-29T07:31:42;21.30;99.90
61412;DHT22;47278;49.732;7.690;2022-07-29T07:34:08;21.30;99.90
61412;DHT22;47278;49.732;7.690;2022-07-29T07:36:33;21.40;99.90
61412;DHT22;47278;49.732;7.690;2022-07-29T07:38:59;21.50;99.90
61412;DHT22;47278;49.732;7.690;2022-07-29T07:41:24;21.60;99.90
61412;DHT22;47278;49.732;7.690;2022-07-29T07:43:50;21.70;99.90
61412;DHT22;47278;49.732;7.690;2022-07-29T07:46:16;21.70;99.90
61412;DHT22;47278;49.732;7.690;2022-07-29T07:48:41;21.70;99.90
61412;DHT22;47278;49.732;7.690;2022-07-29T07:51:07;21.70;99.90
61412;DHT22;47278;49.732;7.690;2022-07-29T07:53:32;21.60;99.90
61412;DHT22;47278;49.732;7.690;2022-07-29T07:55:58;21.70;99.90
61412;DHT22;47278;49.732;7.690;2022-07-29T07:58:24;21.70;99.90
61412;DHT22;47278;49.732;7.690;2022-07-29T08:00:49;21.80;99.90
61412;DHT22;47278;49.732;7.690;2022-07-29T08:03:15;21.90;99.90
61412;DHT22;47278;49.732;7.690;2022-07-29T08:05:40;22.10;99.90
61412;DHT22;47278;49.732;7.690;2022-07-29T08:08:06;22.20;99.90
61412;DHT22;47278;49.732;7.690;2022-07-29T08:10:32;22.30;99.90
61412;DHT22;47278;49.732;7.690;2022-07-29T08:13:16;22.40;99.90
61412;DHT22;47278;49.732;7.690;2022-07-29T08:15:42;22.40;99.90
61412;DHT22;47278;49.732;7.690;2022-07-29T08:18:08;22.60;99.90
61412;DHT22;47278;49.732;7.690;2022-07-29T08:20:34;22.70;99.90
61412;DHT22;47278;49.732;7.690;2022-07-29T08:23:01;22.90;99.90
61412;DHT22;47278;49.732;7.690;2022-07-29T08:25:26;23.00;99.90
61412;DHT22;47278;49.732;7.690;2022-07-29T08:27:52;23.20;99.90
61412;DHT22;47278;49.732;7.690;2022-07-29T08:30:18;23.40;99.90
61412;DHT22;47278;49.732;7.690;2022-07-29T08:32:43;23.50;99.90
61412;DHT22;47278;49.732;7.690;2022-07-29T08:35:09;23.70;99.90
61412;DHT22;47278;49.732;7.690;2022-07-29T08:37:34;23.70;99.90
61412;DHT22;47278;49.732;7.690;2022-07-29T08:40:00;23.70;99.90
61412;DHT22;47278;49.732;7.690;2022-07-29T08:42:27;23.70;99.90
61412;DHT22;47278;49.732;7.690;2022-07-29T08:44:52;23.80;99.90
61412;DHT22;47278;49.732;7.690;2022-07-29T08:47:19;24.00;99.90
61412;DHT22;47278;49.732;7.690;2022-07-29T08:49:44;24.40;99.90
61412;DHT22;47278;49.732;7.690;2022-07-29T08:52:12;24.50;99.90
61412;DHT22;47278;49.732;7.690;2022-07-29T08:54:42;24.60;99.90
61412;DHT22;47278;49.732;7.690;2022-07-29T08:57:08;24.50;99.90
61412;DHT22;47278;49.732;7.690;2022-07-29T08:59:34;24.80;99.90
61412;DHT22;47278;49.732;7.690;2022-07-29T09:02:00;25.20;99.90
61412;DHT22;47278;49.732;7.690;2022-07-29T09:04:30;25.20;99.90
61412;DHT22;47278;49.732;7.690;2022-07-29T09:06:58;25.20;99.90
61412;DHT22;47278;49.732;7.690;2022-07-29T09:09:25;24.90;99.90
61412;DHT22;47278;49.732;7.690;2022-07-29T09:11:51;24.50;99.90
61412;DHT22;47278;49.732;7.690;2022-07-29T09:14:18;24.60;99.90
61412;DHT22;47278;49.732;7.690;2022-07-29T09:16:45;25.00;99.90
61412;DHT22;47278;49.732;7.690;2022-07-29T09:19:24;25.10;99.90
61412;DHT22;47278;49.732;7.690;2022-07-29T09:21:49;25.40;99.90
61412;DHT22;47278;49.732;7.690;2022-07-29T09:24:35;25.90;99.90
61412;DHT22;47278;49.732;7.690;2022-07-29T09:27:02;26.10;99.90
61412;DHT22;47278;49.732;7.690;2022-07-29T09:29:31;26.30;99.90
61412;DHT22;47278;49.732;7.690;2022-07-29T09:31:56;26.60;99.90
61412;DHT22;47278;49.732;7.690;2022-07-29T09:34:26;26.80;99.90
61412;DHT22;47278;49.732;7.690;2022-07-29T09:36:54;27.20;99.90
61412;DHT22;47278;49.732;7.690;2022-07-29T09:39:30;27.20;99.90
61412;DHT22;47278;49.732;7.690;2022-07-29T09:41:56;27.10;99.90
61412;DHT22;47278;49.732;7.690;2022-07-29T09:44:22;27.70;99.90
61412;DHT22;47278;49.732;7.690;2022-07-29T09:46:55;27.60;99.90
61412;DHT22;47278;49.732;7.690;2022-07-29T09:49:21;27.50;99.90
61412;DHT22;47278;49.732;7.690;2022-07-29T09:51:46;27.50;99.90
61412;DHT22;47278;49.732;7.690;2022-07-29T09:56:47;28.00;99.90
61412;DHT22;47278;49.732;7.690;2022-07-29T09:59:13;27.70;99.90
61412;DHT22;47278;49.732;7.690;2022-07-29T10:01:39;27.20;99.90
61412;DHT22;47278;49.732;7.690;2022-07-29T10:04:04;27.10;99.90
61412;DHT22;47278;49.732;7.690;2022-07-29T10:06:30;27.20;99.90
61412;DHT22;47278;49.732;7.690;2022-07-29T10:09:06;27.10;99.90
61412;DHT22;47278;49.732;7.690;2022-07-29T10:11:32;27.00;99.90
61412;DHT22;47278;49.732;7.690;2022-07-29T10:13:58;26.80;99.90
61412;DHT22;47278;49.732;7.690;2022-07-29T10:16:23;27.10;99.90
61412;DHT22;47278;49.732;7.690;2022-07-29T10:18:50;27.20;99.90
61412;DHT22;47278;49.732;7.690;2022-07-29T10:21:16;26.50;99.90
61412;DHT22;47278;49.732;7.690;2022-07-29T10:23:42;27.40;99.90
61412;DHT22;47278;49.732;7.690;2022-07-29T10:26:07;27.50;99.90
61412;DHT22;47278;49.732;7.690;2022-07-29T10:28:35;27.30;99.90
61412;DHT22;47278;49.732;7.690;2022-07-29T10:31:05;27.30;99.90
61412;DHT22;47278;49.732;7.690;2022-07-29T10:36:21;28.20;99.90
61412;DHT22;47278;49.732;7.690;2022-07-29T10:39:00;28.00;99.90
61412;DHT22;47278;49.732;7.690;2022-07-29T10:44:09;27.70;99.90
61412;DHT22;47278;49.732;7.690;2022-07-29T10:46:38;28.00;99.90
61412;DHT22;47278;49.732;7.690;2022-07-29T10:54:17;29.40;99.90
61412;DHT22;47278;49.732;7.690;2022-07-29T10:56:43;29.10;99.90
61412;DHT22;47278;49.732;7.690;2022-07-29T11:01:43;28.90;99.90
61412;DHT22;47278;49.732;7.690;2022-07-29T11:04:09;28.70;99.90
61412;DHT22;47278;49.732;7.690;2022-07-29T11:09:19;28.40;99.90
61412;DHT22;47278;49.732;7.690;2022-07-29T11:11:45;28.60;99.90
61412;DHT22;47278;49.732;7.690;2022-07-29T11:14:10;28.60;99.90
61412;DHT22;47278;49.732;7.690;2022-07-29T11:19:20;27.80;99.90
61412;DHT22;47278;49.732;7.690;2022-07-29T11:21:46;27.70;99.90
61412;DHT22;47278;49.732;7.690;2022-07-29T11:24:22;27.70;99.90
61412;DHT22;47278;49.732;7.690;2022-07-29T11:27:06;28.00;99.90
61412;DHT22;47278;49.732;7.690;2022-07-29T11:29:31;28.00;99.90
61412;DHT22;47278;49.732;7.690;2022-07-29T11:32:07;28.00;99.90
61412;DHT22;47278;49.732;7.690;2022-07-29T11:34:33;29.00;99.90
61412;DHT22;47278;49.732;7.690;2022-07-29T11:39:36;27.50;99.90
61412;DHT22;47278;49.732;7.690;2022-07-29T11:45:04;27.50;99.90
61412;DHT22;47278;49.732;7.690;2022-07-29T11:47:39;27.50;99.90
61412;DHT22;47278;49.732;7.690;2022-07-29T11:50:06;27.90;99.90
61412;DHT22;47278;49.732;7.690;2022-07-29T11:52:33;28.20;99.90
61412;DHT22;47278;49.732;7.690;2022-07-29T11:55:00;28.20;99.90
61412;DHT22;47278;49.732;7.690;2022-07-29T11:57:26;28.30;99.90
61412;DHT22;47278;49.732;7.690;2022-07-29T11:59:53;28.40;99.90
61412;DHT22;47278;49.732;7.690;2022-07-29T12:02:19;28.70;99.90
61412;DHT22;47278;49.732;7.690;2022-07-29T12:04:48;28.70;99.90
61412;DHT22;47278;49.732;7.690;2022-07-29T12:07:13;28.30;99.90
61412;DHT22;47278;49.732;7.690;2022-07-29T12:09:39;28.30;99.90
61412;DHT22;47278;49.732;7.690;2022-07-29T12:12:05;28.40;99.90
61412;DHT22;47278;49.732;7.690;2022-07-29T12:14:31;28.80;99.90
61412;DHT22;47278;49.732;7.690;2022-07-29T12:16:58;29.40;99.90
61412;DHT22;47278;49.732;7.690;2022-07-29T12:19:24;30.00;99.90
61412;DHT22;47278;49.732;7.690;2022-07-29T12:21:50;30.60;99.90
61412;DHT22;47278;49.732;7.690;2022-07-29T12:24:16;30.10;99.90
61412;DHT22;47278;49.732;7.690;2022-07-29T12:26:55;29.40;99.90
61412;DHT22;47278;49.732;7.690;2022-07-29T12:29:21;29.00;99.90
61412;DHT22;47278;49.732;7.690;2022-07-29T12:31:50;28.90;99.90
61412;DHT22;47278;49.732;7.690;2022-07-29T12:34:19;28.90;99.90
61412;DHT22;47278;49.732;7.690;2022-07-29T12:36:45;28.70;99.90
61412;DHT22;47278;49.732;7.690;2022-07-29T12:39:11;28.70;99.90
61412;DHT22;47278;49.732;7.690;2022-07-29T12:41:37;28.50;99.90
61412;DHT22;47278;49.732;7.690;2022-07-29T12:44:03;28.50;99.90
61412;DHT22;47278;49.732;7.690;2022-07-29T12:46:29;28.60;99.90
61412;DHT22;47278;49.732;7.690;2022-07-29T12:48:55;29.20;99.90
61412;DHT22;47278;49.732;7.690;2022-07-29T12:51:37;28.60;99.90
61412;DHT22;47278;49.732;7.690;2022-07-29T12:54:04;28.70;99.90
61412;DHT22;47278;49.732;7.690;2022-07-29T12:56:30;28.70;99.90
61412;DHT22;47278;49.732;7.690;2022-07-29T12:58:55;29.50;99.90
61412;DHT22;47278;49.732;7.690;2022-07-29T13:01:21;28.80;99.90
61412;DHT22;47278;49.732;7.690;2022-07-29T13:03:48;28.70;99.90
61412;DHT22;47278;49.732;7.690;2022-07-29T13:09:13;28.40;99.90
61412;DHT22;47278;49.732;7.690;2022-07-29T13:11:40;28.30;99.90
61412;DHT22;47278;49.732;7.690;2022-07-29T13:14:09;28.40;99.90
61412;DHT22;47278;49.732;7.690;2022-07-29T13:16:35;28.10;99.90
61412;DHT22;47278;49.732;7.690;2022-07-29T13:19:08;28.10;99.90
61412;DHT22;47278;49.732;7.690;2022-07-29T13:21:34;28.10;99.90
61412;DHT22;47278;49.732;7.690;2022-07-29T13:24:00;28.20;99.90
61412;DHT22;47278;49.732;7.690;2022-07-29T13:26:25;28.20;99.90
61412;DHT22;47278;49.732;7.690;2022-07-29T13:28:51;28.40;99.90
61412;DHT22;47278;49.732;7.690;2022-07-29T13:31:16;28.40;99.90
61412;DHT22;47278;49.732;7.690;2022-07-29T13:33:42;28.40;99.90
61412;DHT22;47278;49.732;7.690;2022-07-29T13:36:07;28.40;99.90
61412;DHT22;47278;49.732;7.690;2022-07-29T13:38:33;28.60;99.90
61412;DHT22;47278;49.732;7.690;2022-07-29T13:40:59;28.90;99.90
61412;DHT22;47278;49.732;7.690;2022-07-29T13:43:24;29.00;99.90
61412;DHT22;47278;49.732;7.690;2022-07-29T13:45:50;29.00;99.90
61412;DHT22;47278;49.732;7.690;2022-07-29T13:48:15;29.10;99.90
61412;DHT22;47278;49.732;7.690;2022-07-29T13:50:41;29.20;99.90
61412;DHT22;47278;49.732;7.690;2022-07-29T13:53:06;29.40;99.90
61412;DHT22;47278;49.732;7.690;2022-07-29T13:55:32;29.20;99.90
61412;DHT22;47278;49.732;7.690;2022-07-29T13:57:57;29.10;99.90
61412;DHT22;47278;49.732;7.690;2022-07-29T14:00:23;29.30;99.90
61412;DHT22;47278;49.732;7.690;2022-07-29T14:02:49;29.20;99.30
61412;DHT22;47278;49.732;7.690;2022-07-29T14:05:14;29.10;99.90
61412;DHT22;47278;49.732;7.690;2022-07-29T14:07:40;29.00;99.50
61412;DHT22;47278;49.732;7.690;2022-07-29T14:10:06;28.90;99.70
61412;DHT22;47278;49.732;7.690;2022-07-29T14:12:32;29.00;99.90
61412;DHT22;47278;49.732;7.690;2022-07-29T14:14:58;29.00;99.70
61412;DHT22;47278;49.732;7.690;2022-07-29T14:17:23;29.00;99.90
61412;DHT22;47278;49.732;7.690;2022-07-29T14:19:49;28.90;99.20
61412;DHT22;47278;49.732;7.690;2022-07-29T14:22:14;28.90;97.90
61412;DHT22;47278;49.732;7.690;2022-07-29T14:24:40;28.90;98.00
61412;DHT22;47278;49.732;7.690;2022-07-29T14:27:06;29.00;98.40
61412;DHT22;47278;49.732;7.690;2022-07-29T14:29:32;28.90;97.80
61412;DHT22;47278;49.732;7.690;2022-07-29T14:31:57;29.00;97.50
61412;DHT22;47278;49.732;7.690;2022-07-29T14:34:23;29.30;97.40
61412;DHT22;47278;49.732;7.690;2022-07-29T14:36:49;29.50;96.50
61412;DHT22;47278;49.732;7.690;2022-07-29T14:39:14;29.50;95.70
61412;DHT22;47278;49.732;7.690;2022-07-29T14:41:41;29.50;95.70
61412;DHT22;47278;49.732;7.690;2022-07-29T14:44:07;29.80;96.30
61412;DHT22;47278;49.732;7.690;2022-07-29T14:46:32;30.60;95.30
61412;DHT22;47278;49.732;7.690;2022-07-29T14:48:58;31.10;94.10
61412;DHT22;47278;49.732;7.690;2022-07-29T14:51:23;30.70;92.90
61412;DHT22;47278;49.732;7.690;2022-07-29T14:53:49;31.00;92.50
61412;DHT22;47278;49.732;7.690;2022-07-29T14:56:15;31.00;92.50
61412;DHT22;47278;49.732;7.690;2022-07-29T14:58:41;30.80;91.20
61412;DHT22;47278;49.732;7.690;2022-07-29T15:01:06;30.40;90.80
61412;DHT22;47278;49.732;7.690;2022-07-29T15:03:32;30.00;90.20
61412;DHT22;47278;49.732;7.690;2022-07-29T15:05:57;29.60;90.30
61412;DHT22;47278;49.732;7.690;2022-07-29T15:08:23;28.90;90.30
61412;DHT22;47278;49.732;7.690;2022-07-29T15:10:50;29.60;91.10
61412;DHT22;47278;49.732;7.690;2022-07-29T15:13:16;29.50;90.90
61412;DHT22;47278;49.732;7.690;2022-07-29T15:15:41;29.60;91.10
61412;DHT22;47278;49.732;7.690;2022-07-29T15:18:07;29.60;90.80
61412;DHT22;47278;49.732;7.690;2022-07-29T15:20:34;29.80;91.50
61412;DHT22;47278;49.732;7.690;2022-07-29T15:22:59;29.50;90.00
61412;DHT22;47278;49.732;7.690;2022-07-29T15:25:25;29.40;90.90
61412;DHT22;47278;49.732;7.690;2022-07-29T15:27:51;29.20;91.80
61412;DHT22;47278;49.732;7.690;2022-07-29T15:30:16;29.00;91.80
61412;DHT22;47278;49.732;7.690;2022-07-29T15:32:42;28.90;92.10
61412;DHT22;47278;49.732;7.690;2022-07-29T15:35:08;28.90;92.70
61412;DHT22;47278;49.732;7.690;2022-07-29T15:37:35;28.80;93.70
61412;DHT22;47278;49.732;7.690;2022-07-29T15:40:01;28.70;94.30
61412;DHT22;47278;49.732;7.690;2022-07-29T15:42:26;29.10;94.10
61412;DHT22;47278;49.732;7.690;2022-07-29T15:44:52;29.10;95.20
61412;DHT22;47278;49.732;7.690;2022-07-29T15:47:17;28.80;94.50
61412;DHT22;47278;49.732;7.690;2022-07-29T15:49:43;29.00;94.50
61412;DHT22;47278;49.732;7.690;2022-07-29T15:52:09;29.50;94.90
61412;DHT22;47278;49.732;7.690;2022-07-29T15:54:35;30.30;93.30
61412;DHT22;47278;49.732;7.690;2022-07-29T15:57:02;30.60;93.40
61412;DHT22;47278;49.732;7.690;2022-07-29T15:59:28;30.40;93.10
61412;DHT22;47278;49.732;7.690;2022-07-29T16:01:54;30.00;92.80